Flight Track Log - Related Links

Times and Time Zones

All times are in EDT time to prevent confusion due to time zone crossing. See the EJA396 flight status page for this flight to view local times or setup timezone preferences in your user account.

Time Position Orientation Groundspeed Altitude Reporting Facility
EDT Latitude Longitude Course Direction KTS MPH feet Rate Location/Type
Fri 04:43:52 PM 26.1536 -81.6058 107° East 236 272 4,600  Level Miami Center
Fri 04:44:52 PM 26.1183 -81.5350 119° Southeast 267 307 7,000 1,200 Climbing Miami Center
Fri 04:45:52 PM 26.0811 -81.4550 117° Southeast 285 328 7,000  Level Miami Center
Fri 04:46:52 PM 26.0439 -81.3794 119° Southeast 285 328 7,000  Level Miami Center
Fri 04:47:00 PM 26.0388 -81.2949 119° Southeast  Level Estimated
Fri 04:47:52 PM 26.0086 -81.3019 117° Southeast 285 328 7,000  Level Miami Center
Fri 04:48:00 PM 26.0158 -81.1988 85° East  Level Estimated
Fri 04:48:17 PM 25.9908 -81.2714 123° Southeast 280 322 7,000  Level Miami Center
Fri 04:48:52 PM 25.9775 -81.2314 110° East 285 328 7,000  Level Miami Center
Fri 04:49:00 PM 25.9897 -81.1038 107° East  Level FlightAware Approximate
Fri 04:49:18 PM 25.9619 -81.1917 114° Southeast 281 323 7,000  Level Miami Center
Fri 04:49:52 PM 25.9486 -81.1428 107° East 285 328 7,000  Level Miami Center
Fri 04:50:19 PM 25.9331 -81.1097 118° Southeast 280 322 7,000  Level Miami Center
Fri 04:50:52 PM 25.9239 -81.0608 102° East 280 322 7,000  Level Miami Center
Fri 04:51:20 PM 25.9083 -81.0236 115° Southeast 280 322 7,000  Level Miami Center
Fri 04:51:52 PM 25.9033 -80.9794 97° East 275 316 7,000  Level Miami Center
Fri 04:52:15 PM 25.8936 -80.9469 108° East 280 322 7,000 -1,000 Level Miami Center
Fri 04:52:52 PM 25.8869 -80.8936 98° East 275 316 6,000 -1,900 Descending Miami Center
Fri 04:53:15 PM 25.8772 -80.8631 109° East 280 322 5,100 -2,000 Descending Miami Center
Fri 04:53:52 PM 25.8744 -80.8100 93° East 270 311 4,000 -984 Descending Miami Center
Fri 04:54:16 PM 25.8650 -80.7797 109° East 268 308 4,100 -600 Climbing Miami Center
Fri 04:54:52 PM 25.8600 -80.7311 97° East 270 311 3,400 -1,091 Descending Miami Center
Fri 04:55:11 PM 25.8522 -80.7078 110° East 263 303 3,100 -400 Descending Miami Center
Fri 04:55:52 PM 25.8494 -80.6522 93° East 265 305 3,000 -98 Descending Miami Center
Fri 04:56:12 PM 25.8417 -80.6267 109° East 262 302 3,000  Level Miami Center
Fri 04:56:52 PM 25.8389 -80.5733 93° East 260 299 3,000  Level Miami Center
Fri 04:57:19 PM 25.8272 -80.5408 112° Southeast 254 292 3,000  Level Miami Center
Fri 04:57:52 PM 25.8178 -80.5011 105° East 250 288 3,000 -194 Level Miami Center
Fri 04:58:21 PM 25.8100 -80.4733 107° East 194 223 2,800 -786 Descending Miami Center
Fri 04:59:16 PM 25.8008 -80.4222 101° East 178 205 1,900 -828 Descending Miami Center
Fri 05:00:17 PM 25.7978 -80.3736 94° East 155 178 1,200 -639 Descending Miami Center
Fri 05:01:18 PM 25.7989 -80.3322 88° East 108 124 600 -590 Descending Miami Center
Fri 05:03:00 PM 25.7954 -80.2901 90° East  Level Estimated
Fri 05:10:00 PM 25.7954 -80.2901 90° East  Level Estimated

Login

Don't have an account? Register now (free) for customized features, flight alerts, and more!